sensor_id;sensor_type;location;lat;lon;timestamp;P1;durP1;ratioP1;P2;durP2;ratioP2
62610;SDS011;48683;48.084;17.272;2023-03-16T00:01:35;8.25;;;4.40;;
62610;SDS011;48683;48.084;17.272;2023-03-16T00:04:00;6.80;;;3.88;;
62610;SDS011;48683;48.084;17.272;2023-03-16T00:06:26;6.53;;;4.15;;
62610;SDS011;48683;48.084;17.272;2023-03-16T00:08:51;5.07;;;3.70;;
62610;SDS011;48683;48.084;17.272;2023-03-16T00:11:22;3.90;;;3.13;;
62610;SDS011;48683;48.084;17.272;2023-03-16T00:13:48;5.57;;;3.83;;
62610;SDS011;48683;48.084;17.272;2023-03-16T00:16:13;4.45;;;3.85;;
62610;SDS011;48683;48.084;17.272;2023-03-16T00:18:40;5.35;;;4.00;;
62610;SDS011;48683;48.084;17.272;2023-03-16T00:21:06;5.65;;;3.70;;
62610;SDS011;48683;48.084;17.272;2023-03-16T00:23:32;5.13;;;4.07;;
62610;SDS011;48683;48.084;17.272;2023-03-16T00:26:01;5.55;;;3.90;;
62610;SDS011;48683;48.084;17.272;2023-03-16T00:28:31;5.95;;;4.32;;
62610;SDS011;48683;48.084;17.272;2023-03-16T00:31:02;5.90;;;4.63;;
62610;SDS011;48683;48.084;17.272;2023-03-16T00:33:29;7.53;;;5.40;;
62610;SDS011;48683;48.084;17.272;2023-03-16T00:35:58;7.43;;;5.32;;
62610;SDS011;48683;48.084;17.272;2023-03-16T00:38:28;8.00;;;6.10;;
62610;SDS011;48683;48.084;17.272;2023-03-16T00:41:03;8.45;;;6.05;;
62610;SDS011;48683;48.084;17.272;2023-03-16T00:43:31;7.63;;;5.97;;
62610;SDS011;48683;48.084;17.272;2023-03-16T00:46:05;6.85;;;5.53;;
62610;SDS011;48683;48.084;17.272;2023-03-16T00:48:32;8.05;;;5.95;;
62610;SDS011;48683;48.084;17.272;2023-03-16T00:50:59;9.13;;;6.18;;
62610;SDS011;48683;48.084;17.272;2023-03-16T00:53:25;12.30;;;6.60;;
62610;SDS011;48683;48.084;17.272;2023-03-16T00:55:51;11.30;;;6.53;;
62610;SDS011;48683;48.084;17.272;2023-03-16T00:58:17;9.47;;;6.90;;
62610;SDS011;48683;48.084;17.272;2023-03-16T01:00:44;8.88;;;7.32;;
62610;SDS011;48683;48.084;17.272;2023-03-16T01:03:10;9.55;;;6.80;;
62610;SDS011;48683;48.084;17.272;2023-03-16T01:05:39;8.48;;;6.90;;
62610;SDS011;48683;48.084;17.272;2023-03-16T01:08:06;8.23;;;6.97;;
62610;SDS011;48683;48.084;17.272;2023-03-16T01:10:32;7.60;;;6.87;;
62610;SDS011;48683;48.084;17.272;2023-03-16T01:12:58;8.55;;;7.20;;
62610;SDS011;48683;48.084;17.272;2023-03-16T01:15:24;10.77;;;7.55;;
62610;SDS011;48683;48.084;17.272;2023-03-16T01:17:49;11.68;;;7.55;;
62610;SDS011;48683;48.084;17.272;2023-03-16T01:20:15;10.07;;;7.93;;
62610;SDS011;48683;48.084;17.272;2023-03-16T01:22:43;10.30;;;8.02;;
62610;SDS011;48683;48.084;17.272;2023-03-16T01:25:09;9.77;;;7.47;;
62610;SDS011;48683;48.084;17.272;2023-03-16T01:27:36;10.73;;;8.00;;
62610;SDS011;48683;48.084;17.272;2023-03-16T01:30:02;9.63;;;8.25;;
62610;SDS011;48683;48.084;17.272;2023-03-16T01:32:29;9.73;;;8.15;;
62610;SDS011;48683;48.084;17.272;2023-03-16T01:34:55;11.13;;;8.63;;
62610;SDS011;48683;48.084;17.272;2023-03-16T01:37:20;9.10;;;6.75;;
62610;SDS011;48683;48.084;17.272;2023-03-16T01:39:47;12.48;;;8.02;;
62610;SDS011;48683;48.084;17.272;2023-03-16T01:42:13;12.52;;;8.85;;
62610;SDS011;48683;48.084;17.272;2023-03-16T01:44:55;10.50;;;8.70;;
62610;SDS011;48683;48.084;17.272;2023-03-16T01:49:52;9.73;;;7.70;;
62610;SDS011;48683;48.084;17.272;2023-03-16T01:52:20;9.18;;;7.40;;
62610;SDS011;48683;48.084;17.272;2023-03-16T01:54:49;13.07;;;9.05;;
62610;SDS011;48683;48.084;17.272;2023-03-16T01:57:19;12.43;;;9.27;;
62610;SDS011;48683;48.084;17.272;2023-03-16T02:02:20;13.13;;;9.93;;
62610;SDS011;48683;48.084;17.272;2023-03-16T02:07:33;12.10;;;9.85;;
62610;SDS011;48683;48.084;17.272;2023-03-16T02:10:01;12.93;;;10.00;;
62610;SDS011;48683;48.084;17.272;2023-03-16T02:12:28;12.88;;;10.02;;
62610;SDS011;48683;48.084;17.272;2023-03-16T02:14:54;11.38;;;8.93;;
62610;SDS011;48683;48.084;17.272;2023-03-16T02:17:21;13.57;;;9.90;;
62610;SDS011;48683;48.084;17.272;2023-03-16T02:20:05;12.63;;;9.40;;
62610;SDS011;48683;48.084;17.272;2023-03-16T02:22:41;12.90;;;9.35;;
62610;SDS011;48683;48.084;17.272;2023-03-16T02:25:09;11.60;;;8.77;;
62610;SDS011;48683;48.084;17.272;2023-03-16T02:27:40;12.63;;;9.60;;
62610;SDS011;48683;48.084;17.272;2023-03-16T02:32:41;15.32;;;9.98;;
62610;SDS011;48683;48.084;17.272;2023-03-16T02:35:09;13.73;;;10.35;;
62610;SDS011;48683;48.084;17.272;2023-03-16T02:37:36;14.95;;;9.95;;
62610;SDS011;48683;48.084;17.272;2023-03-16T02:40:13;14.23;;;10.50;;
62610;SDS011;48683;48.084;17.272;2023-03-16T02:42:43;13.20;;;10.52;;
62610;SDS011;48683;48.084;17.272;2023-03-16T02:45:08;15.27;;;10.13;;
62610;SDS011;48683;48.084;17.272;2023-03-16T02:47:36;13.35;;;10.75;;
62610;SDS011;48683;48.084;17.272;2023-03-16T02:50:04;15.95;;;10.45;;
62610;SDS011;48683;48.084;17.272;2023-03-16T02:52:34;13.98;;;9.90;;
62610;SDS011;48683;48.084;17.272;2023-03-16T02:55:00;13.77;;;10.45;;
62610;SDS011;48683;48.084;17.272;2023-03-16T02:57:26;15.73;;;11.85;;
62610;SDS011;48683;48.084;17.272;2023-03-16T02:59:51;13.90;;;10.07;;
62610;SDS011;48683;48.084;17.272;2023-03-16T03:02:17;14.73;;;10.23;;
62610;SDS011;48683;48.084;17.272;2023-03-16T03:04:42;13.23;;;9.57;;
62610;SDS011;48683;48.084;17.272;2023-03-16T03:07:10;14.32;;;9.95;;
62610;SDS011;48683;48.084;17.272;2023-03-16T03:09:38;16.20;;;10.13;;
62610;SDS011;48683;48.084;17.272;2023-03-16T03:12:06;13.80;;;11.10;;
62610;SDS011;48683;48.084;17.272;2023-03-16T03:14:33;14.57;;;10.45;;
62610;SDS011;48683;48.084;17.272;2023-03-16T03:17:02;16.33;;;9.57;;
62610;SDS011;48683;48.084;17.272;2023-03-16T03:19:28;11.35;;;9.75;;
62610;SDS011;48683;48.084;17.272;2023-03-16T03:21:53;13.43;;;10.98;;
62610;SDS011;48683;48.084;17.272;2023-03-16T03:26:46;16.03;;;10.33;;
62610;SDS011;48683;48.084;17.272;2023-03-16T03:29:11;16.45;;;9.73;;
62610;SDS011;48683;48.084;17.272;2023-03-16T03:31:37;13.05;;;10.02;;
62610;SDS011;48683;48.084;17.272;2023-03-16T03:34:02;16.17;;;10.35;;
62610;SDS011;48683;48.084;17.272;2023-03-16T03:36:30;16.10;;;10.20;;
62610;SDS011;48683;48.084;17.272;2023-03-16T03:38:56;16.80;;;10.43;;
62610;SDS011;48683;48.084;17.272;2023-03-16T03:41:21;16.77;;;10.90;;
62610;SDS011;48683;48.084;17.272;2023-03-16T03:43:46;16.25;;;11.27;;
62610;SDS011;48683;48.084;17.272;2023-03-16T03:46:12;15.98;;;11.40;;
62610;SDS011;48683;48.084;17.272;2023-03-16T03:48:37;16.77;;;11.73;;
62610;SDS011;48683;48.084;17.272;2023-03-16T03:51:02;16.13;;;11.52;;
62610;SDS011;48683;48.084;17.272;2023-03-16T03:53:29;17.40;;;11.43;;
62610;SDS011;48683;48.084;17.272;2023-03-16T03:55:55;16.15;;;11.50;;
62610;SDS011;48683;48.084;17.272;2023-03-16T03:58:20;19.05;;;12.35;;
62610;SDS011;48683;48.084;17.272;2023-03-16T04:00:45;15.45;;;10.68;;
62610;SDS011;48683;48.084;17.272;2023-03-16T04:03:11;17.92;;;11.68;;
62610;SDS011;48683;48.084;17.272;2023-03-16T04:05:36;15.52;;;11.77;;
62610;SDS011;48683;48.084;17.272;2023-03-16T04:08:01;17.40;;;11.57;;
62610;SDS011;48683;48.084;17.272;2023-03-16T04:10:27;16.67;;;11.35;;
62610;SDS011;48683;48.084;17.272;2023-03-16T04:12:56;15.83;;;11.50;;
62610;SDS011;48683;48.084;17.272;2023-03-16T04:15:22;14.35;;;10.60;;
62610;SDS011;48683;48.084;17.272;2023-03-16T04:17:48;15.68;;;10.93;;
62610;SDS011;48683;48.084;17.272;2023-03-16T04:20:14;15.77;;;10.93;;
62610;SDS011;48683;48.084;17.272;2023-03-16T04:22:43;15.15;;;10.27;;
62610;SDS011;48683;48.084;17.272;2023-03-16T04:25:12;15.85;;;10.40;;
62610;SDS011;48683;48.084;17.272;2023-03-16T04:27:39;22.27;;;10.25;;
62610;SDS011;48683;48.084;17.272;2023-03-16T04:30:06;16.33;;;10.63;;
62610;SDS011;48683;48.084;17.272;2023-03-16T04:32:35;14.48;;;9.77;;
62610;SDS011;48683;48.084;17.272;2023-03-16T04:35:01;14.35;;;10.00;;
62610;SDS011;48683;48.084;17.272;2023-03-16T04:37:27;14.60;;;10.93;;
62610;SDS011;48683;48.084;17.272;2023-03-16T04:39:53;14.55;;;11.27;;
62610;SDS011;48683;48.084;17.272;2023-03-16T04:42:18;15.55;;;11.52;;
62610;SDS011;48683;48.084;17.272;2023-03-16T04:44:43;13.13;;;10.68;;
62610;SDS011;48683;48.084;17.272;2023-03-16T04:47:10;17.02;;;11.50;;
62610;SDS011;48683;48.084;17.272;2023-03-16T04:52:01;18.70;;;11.80;;
62610;SDS011;48683;48.084;17.272;2023-03-16T04:54:27;17.00;;;12.37;;
62610;SDS011;48683;48.084;17.272;2023-03-16T04:56:53;19.17;;;11.80;;
62610;SDS011;48683;48.084;17.272;2023-03-16T04:59:18;16.63;;;11.55;;
62610;SDS011;48683;48.084;17.272;2023-03-16T05:01:44;17.58;;;12.52;;
62610;SDS011;48683;48.084;17.272;2023-03-16T05:04:09;17.90;;;12.00;;
62610;SDS011;48683;48.084;17.272;2023-03-16T05:06:34;15.65;;;10.95;;
62610;SDS011;48683;48.084;17.272;2023-03-16T05:09:00;15.68;;;11.50;;
62610;SDS011;48683;48.084;17.272;2023-03-16T05:11:25;16.75;;;11.18;;
62610;SDS011;48683;48.084;17.272;2023-03-16T05:13:51;17.05;;;12.43;;
62610;SDS011;48683;48.084;17.272;2023-03-16T05:16:16;19.00;;;11.43;;
62610;SDS011;48683;48.084;17.272;2023-03-16T05:18:42;16.38;;;11.70;;
62610;SDS011;48683;48.084;17.272;2023-03-16T05:21:07;17.30;;;11.45;;
62610;SDS011;48683;48.084;17.272;2023-03-16T05:23:32;18.35;;;11.43;;
62610;SDS011;48683;48.084;17.272;2023-03-16T05:25:58;16.00;;;10.90;;
62610;SDS011;48683;48.084;17.272;2023-03-16T05:28:27;18.88;;;12.25;;
62610;SDS011;48683;48.084;17.272;2023-03-16T05:30:52;20.48;;;12.38;;
62610;SDS011;48683;48.084;17.272;2023-03-16T05:33:18;15.65;;;11.30;;
62610;SDS011;48683;48.084;17.272;2023-03-16T05:35:43;22.75;;;12.68;;
62610;SDS011;48683;48.084;17.272;2023-03-16T05:38:08;22.83;;;12.10;;
62610;SDS011;48683;48.084;17.272;2023-03-16T05:40:34;18.27;;;12.07;;
62610;SDS011;48683;48.084;17.272;2023-03-16T05:43:01;17.80;;;12.45;;
62610;SDS011;48683;48.084;17.272;2023-03-16T05:45:28;20.85;;;12.02;;
62610;SDS011;48683;48.084;17.272;2023-03-16T05:47:54;16.80;;;11.38;;
62610;SDS011;48683;48.084;17.272;2023-03-16T05:50:20;17.42;;;11.48;;
62610;SDS011;48683;48.084;17.272;2023-03-16T05:52:46;18.00;;;11.75;;
62610;SDS011;48683;48.084;17.272;2023-03-16T05:55:13;21.20;;;12.05;;
62610;SDS011;48683;48.084;17.272;2023-03-16T05:57:40;17.85;;;12.55;;
62610;SDS011;48683;48.084;17.272;2023-03-16T06:00:06;16.98;;;11.50;;
62610;SDS011;48683;48.084;17.272;2023-03-16T06:02:43;22.08;;;12.20;;
62610;SDS011;48683;48.084;17.272;2023-03-16T06:05:13;15.25;;;11.18;;
62610;SDS011;48683;48.084;17.272;2023-03-16T06:07:39;15.70;;;11.82;;
62610;SDS011;48683;48.084;17.272;2023-03-16T06:10:06;18.30;;;12.50;;
62610;SDS011;48683;48.084;17.272;2023-03-16T06:12:32;17.05;;;11.70;;
62610;SDS011;48683;48.084;17.272;2023-03-16T06:14:58;16.77;;;12.63;;
62610;SDS011;48683;48.084;17.272;2023-03-16T06:17:24;18.93;;;12.57;;
62610;SDS011;48683;48.084;17.272;2023-03-16T06:19:50;17.52;;;13.07;;
62610;SDS011;48683;48.084;17.272;2023-03-16T06:22:15;19.23;;;12.10;;
62610;SDS011;48683;48.084;17.272;2023-03-16T06:24:42;19.87;;;11.57;;
62610;SDS011;48683;48.084;17.272;2023-03-16T06:27:07;17.90;;;12.25;;
62610;SDS011;48683;48.084;17.272;2023-03-16T06:29:33;17.77;;;12.95;;
62610;SDS011;48683;48.084;17.272;2023-03-16T06:31:58;18.15;;;11.82;;
62610;SDS011;48683;48.084;17.272;2023-03-16T06:34:24;21.23;;;11.75;;
62610;SDS011;48683;48.084;17.272;2023-03-16T06:36:49;16.23;;;10.93;;
62610;SDS011;48683;48.084;17.272;2023-03-16T06:39:15;17.23;;;11.70;;
62610;SDS011;48683;48.084;17.272;2023-03-16T06:41:41;17.40;;;10.95;;
62610;SDS011;48683;48.084;17.272;2023-03-16T06:44:07;17.92;;;11.80;;
62610;SDS011;48683;48.084;17.272;2023-03-16T06:46:33;18.92;;;11.65;;
62610;SDS011;48683;48.084;17.272;2023-03-16T06:48:58;16.73;;;12.10;;
62610;SDS011;48683;48.084;17.272;2023-03-16T06:51:25;16.45;;;10.85;;
62610;SDS011;48683;48.084;17.272;2023-03-16T06:53:50;16.20;;;10.93;;
62610;SDS011;48683;48.084;17.272;2023-03-16T06:56:16;18.65;;;11.23;;
62610;SDS011;48683;48.084;17.272;2023-03-16T06:58:41;14.32;;;10.68;;
62610;SDS011;48683;48.084;17.272;2023-03-16T07:01:06;21.05;;;12.65;;
62610;SDS011;48683;48.084;17.272;2023-03-16T07:03:32;16.00;;;10.05;;
62610;SDS011;48683;48.084;17.272;2023-03-16T07:05:57;23.13;;;11.30;;
62610;SDS011;48683;48.084;17.272;2023-03-16T07:08:23;18.08;;;11.70;;
62610;SDS011;48683;48.084;17.272;2023-03-16T07:10:49;24.27;;;12.00;;
62610;SDS011;48683;48.084;17.272;2023-03-16T07:13:15;20.13;;;10.20;;
62610;SDS011;48683;48.084;17.272;2023-03-16T07:15:41;30.25;;;11.27;;
62610;SDS011;48683;48.084;17.272;2023-03-16T07:18:08;17.52;;;10.98;;
62610;SDS011;48683;48.084;17.272;2023-03-16T07:20:33;15.13;;;10.40;;
62610;SDS011;48683;48.084;17.272;2023-03-16T07:22:59;17.38;;;10.15;;
62610;SDS011;48683;48.084;17.272;2023-03-16T07:25:24;18.85;;;10.25;;
62610;SDS011;48683;48.084;17.272;2023-03-16T07:27:49;15.70;;;9.88;;
62610;SDS011;48683;48.084;17.272;2023-03-16T07:30:15;13.95;;;8.27;;
62610;SDS011;48683;48.084;17.272;2023-03-16T07:32:41;15.02;;;7.85;;
62610;SDS011;48683;48.084;17.272;2023-03-16T07:35:07;11.50;;;7.18;;
62610;SDS011;48683;48.084;17.272;2023-03-16T07:37:33;14.90;;;7.40;;
62610;SDS011;48683;48.084;17.272;2023-03-16T07:39:59;11.75;;;6.63;;
62610;SDS011;48683;48.084;17.272;2023-03-16T07:42:25;10.98;;;6.72;;
62610;SDS011;48683;48.084;17.272;2023-03-16T07:44:50;12.88;;;5.82;;
62610;SDS011;48683;48.084;17.272;2023-03-16T07:47:16;10.60;;;6.75;;
62610;SDS011;48683;48.084;17.272;2023-03-16T07:49:41;10.98;;;6.45;;
62610;SDS011;48683;48.084;17.272;2023-03-16T07:52:08;12.60;;;6.05;;
62610;SDS011;48683;48.084;17.272;2023-03-16T07:54:34;11.27;;;6.15;;
62610;SDS011;48683;48.084;17.272;2023-03-16T07:56:59;10.48;;;6.00;;
62610;SDS011;48683;48.084;17.272;2023-03-16T07:59:25;10.68;;;6.45;;
62610;SDS011;48683;48.084;17.272;2023-03-16T08:01:51;8.02;;;5.32;;
62610;SDS011;48683;48.084;17.272;2023-03-16T08:04:16;6.57;;;4.40;;
62610;SDS011;48683;48.084;17.272;2023-03-16T08:06:41;8.77;;;3.97;;
62610;SDS011;48683;48.084;17.272;2023-03-16T08:09:07;6.55;;;3.25;;
62610;SDS011;48683;48.084;17.272;2023-03-16T08:11:32;8.07;;;3.95;;
62610;SDS011;48683;48.084;17.272;2023-03-16T08:13:58;6.35;;;3.30;;
62610;SDS011;48683;48.084;17.272;2023-03-16T08:16:23;7.72;;;2.67;;
62610;SDS011;48683;48.084;17.272;2023-03-16T08:18:50;6.50;;;2.70;;
62610;SDS011;48683;48.084;17.272;2023-03-16T08:21:16;3.75;;;2.30;;
62610;SDS011;48683;48.084;17.272;2023-03-16T08:23:42;5.18;;;2.45;;
62610;SDS011;48683;48.084;17.272;2023-03-16T08:26:13;6.38;;;2.90;;
62610;SDS011;48683;48.084;17.272;2023-03-16T08:28:42;4.40;;;2.25;;
62610;SDS011;48683;48.084;17.272;2023-03-16T08:31:12;4.95;;;2.40;;
62610;SDS011;48683;48.084;17.272;2023-03-16T08:33:41;7.00;;;2.60;;
62610;SDS011;48683;48.084;17.272;2023-03-16T08:36:08;3.08;;;2.00;;
62610;SDS011;48683;48.084;17.272;2023-03-16T08:38:35;4.95;;;2.50;;
62610;SDS011;48683;48.084;17.272;2023-03-16T08:41:01;2.85;;;1.50;;
62610;SDS011;48683;48.084;17.272;2023-03-16T08:43:27;4.47;;;2.33;;
62610;SDS011;48683;48.084;17.272;2023-03-16T08:45:52;3.85;;;1.83;;
62610;SDS011;48683;48.084;17.272;2023-03-16T08:48:18;5.15;;;2.00;;
62610;SDS011;48683;48.084;17.272;2023-03-16T08:50:44;4.93;;;2.03;;
62610;SDS011;48683;48.084;17.272;2023-03-16T08:53:11;3.63;;;1.67;;
62610;SDS011;48683;48.084;17.272;2023-03-16T08:55:37;7.82;;;2.50;;
62610;SDS011;48683;48.084;17.272;2023-03-16T08:58:05;4.78;;;2.05;;
62610;SDS011;48683;48.084;17.272;2023-03-16T09:00:31;5.78;;;2.33;;
62610;SDS011;48683;48.084;17.272;2023-03-16T09:02:57;5.68;;;2.20;;
62610;SDS011;48683;48.084;17.272;2023-03-16T09:05:22;3.58;;;1.70;;
62610;SDS011;48683;48.084;17.272;2023-03-16T09:07:49;5.00;;;2.45;;
62610;SDS011;48683;48.084;17.272;2023-03-16T09:10:15;4.38;;;2.20;;
62610;SDS011;48683;48.084;17.272;2023-03-16T09:12:41;5.65;;;2.28;;
62610;SDS011;48683;48.084;17.272;2023-03-16T09:15:08;6.15;;;2.45;;
62610;SDS011;48683;48.084;17.272;2023-03-16T09:17:36;4.35;;;1.98;;
62610;SDS011;48683;48.084;17.272;2023-03-16T09:20:03;3.33;;;2.20;;
62610;SDS011;48683;48.084;17.272;2023-03-16T09:24:55;4.17;;;2.10;;
62610;SDS011;48683;48.084;17.272;2023-03-16T09:27:20;3.20;;;1.70;;
62610;SDS011;48683;48.084;17.272;2023-03-16T09:29:46;3.97;;;2.00;;
62610;SDS011;48683;48.084;17.272;2023-03-16T09:32:12;5.17;;;2.03;;
62610;SDS011;48683;48.084;17.272;2023-03-16T09:37:05;5.23;;;2.00;;
62610;SDS011;48683;48.084;17.272;2023-03-16T09:39:30;4.28;;;1.77;;
62610;SDS011;48683;48.084;17.272;2023-03-16T09:42:04;7.18;;;2.25;;
62610;SDS011;48683;48.084;17.272;2023-03-16T09:44:40;2.42;;;1.88;;
62610;SDS011;48683;48.084;17.272;2023-03-16T09:47:06;5.15;;;2.20;;
62610;SDS011;48683;48.084;17.272;2023-03-16T09:49:36;2.83;;;1.90;;
62610;SDS011;48683;48.084;17.272;2023-03-16T09:55:14;3.97;;;2.55;;
62610;SDS011;48683;48.084;17.272;2023-03-16T09:57:49;5.15;;;2.20;;
62610;SDS011;48683;48.084;17.272;2023-03-16T10:05:30;4.13;;;1.80;;
62610;SDS011;48683;48.084;17.272;2023-03-16T10:16:10;6.40;;;2.40;;
62610;SDS011;48683;48.084;17.272;2023-03-16T10:18:42;4.13;;;2.33;;
62610;SDS011;48683;48.084;17.272;2023-03-16T10:21:30;6.57;;;2.17;;
62610;SDS011;48683;48.084;17.272;2023-03-16T10:23:59;7.68;;;3.25;;
62610;SDS011;48683;48.084;17.272;2023-03-16T10:26:35;6.18;;;3.03;;
62610;SDS011;48683;48.084;17.272;2023-03-16T10:29:12;4.75;;;3.08;;
62610;SDS011;48683;48.084;17.272;2023-03-16T10:31:39;8.18;;;3.25;;
62610;SDS011;48683;48.084;17.272;2023-03-16T10:36:33;5.43;;;3.08;;
62610;SDS011;48683;48.084;17.272;2023-03-16T10:39:04;8.43;;;3.88;;
62610;SDS011;48683;48.084;17.272;2023-03-16T10:41:41;9.43;;;2.88;;
62610;SDS011;48683;48.084;17.272;2023-03-16T10:44:13;6.53;;;3.40;;
62610;SDS011;48683;48.084;17.272;2023-03-16T10:46:41;6.30;;;3.20;;
62610;SDS011;48683;48.084;17.272;2023-03-16T10:49:19;6.00;;;3.00;;
62610;SDS011;48683;48.084;17.272;2023-03-16T10:51:52;4.85;;;2.90;;
62610;SDS011;48683;48.084;17.272;2023-03-16T10:54:28;4.55;;;2.92;;
62610;SDS011;48683;48.084;17.272;2023-03-16T10:56:57;5.18;;;3.13;;
62610;SDS011;48683;48.084;17.272;2023-03-16T10:59:31;4.38;;;2.75;;
62610;SDS011;48683;48.084;17.272;2023-03-16T11:02:10;6.03;;;2.38;;
62610;SDS011;48683;48.084;17.272;2023-03-16T11:04:40;3.95;;;2.58;;
62610;SDS011;48683;48.084;17.272;2023-03-16T11:07:06;6.10;;;2.50;;
62610;SDS011;48683;48.084;17.272;2023-03-16T11:09:39;5.25;;;2.70;;
62610;SDS011;48683;48.084;17.272;2023-03-16T11:12:14;5.80;;;2.50;;
62610;SDS011;48683;48.084;17.272;2023-03-16T11:14:44;4.20;;;2.58;;
62610;SDS011;48683;48.084;17.272;2023-03-16T11:17:18;3.22;;;1.75;;
62610;SDS011;48683;48.084;17.272;2023-03-16T11:22:22;2.90;;;1.70;;
62610;SDS011;48683;48.084;17.272;2023-03-16T11:27:45;4.18;;;1.90;;
62610;SDS011;48683;48.084;17.272;2023-03-16T11:30:18;2.28;;;1.80;;
62610;SDS011;48683;48.084;17.272;2023-03-16T11:32:50;3.10;;;2.00;;
62610;SDS011;48683;48.084;17.272;2023-03-16T11:43:26;5.10;;;1.90;;
62610;SDS011;48683;48.084;17.272;2023-03-16T11:57:45;2.75;;;1.73;;
62610;SDS011;48683;48.084;17.272;2023-03-16T12:00:34;4.43;;;2.28;;
62610;SDS011;48683;48.084;17.272;2023-03-16T12:13:58;3.88;;;1.80;;
62610;SDS011;48683;48.084;17.272;2023-03-16T12:16:45;4.30;;;2.03;;
62610;SDS011;48683;48.084;17.272;2023-03-16T12:19:21;3.28;;;1.77;;
62610;SDS011;48683;48.084;17.272;2023-03-16T12:22:05;5.78;;;1.80;;
62610;SDS011;48683;48.084;17.272;2023-03-16T12:24:39;5.03;;;1.67;;
62610;SDS011;48683;48.084;17.272;2023-03-16T12:27:09;3.67;;;1.67;;
62610;SDS011;48683;48.084;17.272;2023-03-16T12:29:40;3.40;;;2.00;;
62610;SDS011;48683;48.084;17.272;2023-03-16T12:32:24;5.45;;;2.00;;
62610;SDS011;48683;48.084;17.272;2023-03-16T12:35:02;5.35;;;1.95;;
62610;SDS011;48683;48.084;17.272;2023-03-16T12:40:38;3.42;;;2.03;;
62610;SDS011;48683;48.084;17.272;2023-03-16T12:46:10;3.55;;;2.15;;
62610;SDS011;48683;48.084;17.272;2023-03-16T12:48:51;4.10;;;2.28;;
62610;SDS011;48683;48.084;17.272;2023-03-16T12:51:19;4.82;;;2.33;;
62610;SDS011;48683;48.084;17.272;2023-03-16T12:56:35;4.38;;;2.10;;
62610;SDS011;48683;48.084;17.272;2023-03-16T12:59:14;3.80;;;1.98;;
62610;SDS011;48683;48.084;17.272;2023-03-16T13:01:47;5.18;;;2.33;;
62610;SDS011;48683;48.084;17.272;2023-03-16T13:04:15;3.67;;;2.45;;
62610;SDS011;48683;48.084;17.272;2023-03-16T13:06:45;4.20;;;2.20;;
62610;SDS011;48683;48.084;17.272;2023-03-16T13:09:23;4.03;;;2.50;;
62610;SDS011;48683;48.084;17.272;2023-03-16T13:11:52;3.58;;;2.25;;
62610;SDS011;48683;48.084;17.272;2023-03-16T13:19:39;3.97;;;2.20;;
62610;SDS011;48683;48.084;17.272;2023-03-16T13:22:19;3.72;;;2.28;;
62610;SDS011;48683;48.084;17.272;2023-03-16T13:27:35;3.40;;;2.20;;
62610;SDS011;48683;48.084;17.272;2023-03-16T13:30:16;3.63;;;2.33;;
62610;SDS011;48683;48.084;17.272;2023-03-16T13:32:44;4.55;;;2.30;;
62610;SDS011;48683;48.084;17.272;2023-03-16T13:37:41;4.80;;;2.22;;
62610;SDS011;48683;48.084;17.272;2023-03-16T13:40:18;3.95;;;2.80;;
62610;SDS011;48683;48.084;17.272;2023-03-16T13:42:52;6.30;;;2.47;;
62610;SDS011;48683;48.084;17.272;2023-03-16T13:45:53;4.45;;;2.38;;
62610;SDS011;48683;48.084;17.272;2023-03-16T13:48:12;4.78;;;1.95;;
62610;SDS011;48683;48.084;17.272;2023-03-16T13:50:39;5.32;;;2.67;;
62610;SDS011;48683;48.084;17.272;2023-03-16T13:53:13;4.85;;;2.10;;
62610;SDS011;48683;48.084;17.272;2023-03-16T13:55:42;5.97;;;2.25;;
62610;SDS011;48683;48.084;17.272;2023-03-16T13:58:16;2.95;;;2.15;;
62610;SDS011;48683;48.084;17.272;2023-03-16T14:00:46;4.03;;;2.00;;
62610;SDS011;48683;48.084;17.272;2023-03-16T14:03:15;3.60;;;2.15;;
62610;SDS011;48683;48.084;17.272;2023-03-16T14:05:42;4.38;;;2.30;;
62610;SDS011;48683;48.084;17.272;2023-03-16T14:10:41;5.80;;;2.50;;
62610;SDS011;48683;48.084;17.272;2023-03-16T14:15:34;5.88;;;2.00;;
62610;SDS011;48683;48.084;17.272;2023-03-16T14:18:23;3.38;;;1.98;;
62610;SDS011;48683;48.084;17.272;2023-03-16T14:20:52;3.85;;;2.08;;
62610;SDS011;48683;48.084;17.272;2023-03-16T14:23:26;2.70;;;2.00;;
62610;SDS011;48683;48.084;17.272;2023-03-16T14:25:57;6.30;;;2.42;;
62610;SDS011;48683;48.084;17.272;2023-03-16T14:28:27;4.75;;;2.10;;
62610;SDS011;48683;48.084;17.272;2023-03-16T14:31:06;2.58;;;2.08;;
62610;SDS011;48683;48.084;17.272;2023-03-16T14:33:35;4.20;;;2.38;;
62610;SDS011;48683;48.084;17.272;2023-03-16T14:36:17;5.82;;;2.78;;
62610;SDS011;48683;48.084;17.272;2023-03-16T14:38:46;3.83;;;2.40;;
62610;SDS011;48683;48.084;17.272;2023-03-16T14:41:25;2.38;;;2.08;;
62610;SDS011;48683;48.084;17.272;2023-03-16T14:43:58;4.25;;;2.65;;
62610;SDS011;48683;48.084;17.272;2023-03-16T14:46:29;3.75;;;2.08;;
62610;SDS011;48683;48.084;17.272;2023-03-16T14:51:47;6.93;;;2.85;;
62610;SDS011;48683;48.084;17.272;2023-03-16T14:54:15;4.63;;;2.70;;
62610;SDS011;48683;48.084;17.272;2023-03-16T14:56:42;4.25;;;2.70;;
62610;SDS011;48683;48.084;17.272;2023-03-16T14:59:11;4.68;;;2.50;;
62610;SDS011;48683;48.084;17.272;2023-03-16T15:01:37;6.00;;;2.40;;
62610;SDS011;48683;48.084;17.272;2023-03-16T15:04:02;4.35;;;2.53;;
62610;SDS011;48683;48.084;17.272;2023-03-16T15:06:29;6.32;;;2.70;;
62610;SDS011;48683;48.084;17.272;2023-03-16T15:08:56;3.80;;;2.10;;
62610;SDS011;48683;48.084;17.272;2023-03-16T15:11:22;4.90;;;2.60;;
62610;SDS011;48683;48.084;17.272;2023-03-16T15:13:50;5.35;;;2.60;;
62610;SDS011;48683;48.084;17.272;2023-03-16T15:16:16;4.72;;;2.60;;
62610;SDS011;48683;48.084;17.272;2023-03-16T15:18:41;3.22;;;2.25;;
62610;SDS011;48683;48.084;17.272;2023-03-16T15:21:10;4.10;;;2.58;;
62610;SDS011;48683;48.084;17.272;2023-03-16T15:23:40;5.80;;;3.35;;
62610;SDS011;48683;48.084;17.272;2023-03-16T15:26:08;5.50;;;2.88;;
62610;SDS011;48683;48.084;17.272;2023-03-16T15:28:35;5.15;;;3.45;;
62610;SDS011;48683;48.084;17.272;2023-03-16T15:31:01;5.82;;;3.30;;
62610;SDS011;48683;48.084;17.272;2023-03-16T15:33:27;7.33;;;3.30;;
62610;SDS011;48683;48.084;17.272;2023-03-16T15:35:57;8.00;;;3.47;;
62610;SDS011;48683;48.084;17.272;2023-03-16T15:38:28;6.07;;;2.92;;
62610;SDS011;48683;48.084;17.272;2023-03-16T15:40:56;5.45;;;3.10;;
62610;SDS011;48683;48.084;17.272;2023-03-16T15:43:23;6.97;;;3.33;;
62610;SDS011;48683;48.084;17.272;2023-03-16T15:45:51;4.47;;;2.58;;
62610;SDS011;48683;48.084;17.272;2023-03-16T15:48:18;3.97;;;3.10;;
62610;SDS011;48683;48.084;17.272;2023-03-16T15:50:58;7.53;;;3.50;;
62610;SDS011;48683;48.084;17.272;2023-03-16T15:53:36;4.60;;;2.92;;
62610;SDS011;48683;48.084;17.272;2023-03-16T15:56:05;5.15;;;2.90;;
62610;SDS011;48683;48.084;17.272;2023-03-16T15:58:33;4.32;;;2.80;;
62610;SDS011;48683;48.084;17.272;2023-03-16T16:01:00;4.63;;;2.90;;
62610;SDS011;48683;48.084;17.272;2023-03-16T16:03:27;5.18;;;3.00;;
62610;SDS011;48683;48.084;17.272;2023-03-16T16:05:52;4.45;;;3.08;;
62610;SDS011;48683;48.084;17.272;2023-03-16T16:08:18;8.02;;;3.53;;
62610;SDS011;48683;48.084;17.272;2023-03-16T16:10:45;6.13;;;3.40;;
62610;SDS011;48683;48.084;17.272;2023-03-16T16:13:16;5.10;;;3.03;;